createdAt,value
2022-10-06T00:11:19.739Z,1031.24
2022-10-06T00:26:37.673Z,1031.46
2022-10-06T00:41:54.687Z,1031.57
2022-10-06T00:57:11.620Z,1031.44
2022-10-06T01:12:27.603Z,1031.49
2022-10-06T01:27:44.575Z,1031.55
2022-10-06T01:43:01.576Z,1031.57
2022-10-06T01:58:17.520Z,1031.41
2022-10-06T02:13:34.497Z,1031.47
2022-10-06T02:28:50.550Z,1031.33
2022-10-06T02:44:06.432Z,1031.16
2022-10-06T02:59:23.444Z,1031.2
2022-10-06T03:14:41.382Z,1031.28
2022-10-06T03:29:58.390Z,1031.34
2022-10-06T03:45:14.333Z,1031.34
2022-10-06T04:00:30.353Z,1031.34
2022-10-06T04:15:47.285Z,1031.28
2022-10-06T04:31:03.266Z,1031.34
2022-10-06T04:46:41.429Z,1031.37
2022-10-06T05:01:36.207Z,1031.45
2022-10-06T05:16:54.236Z,1031.58
2022-10-06T05:32:11.156Z,1031.66
2022-10-06T05:47:27.134Z,1031.55
2022-10-06T06:02:43.436Z,1031.66
2022-10-06T06:18:00.082Z,1031.88
2022-10-06T06:33:16.051Z,1031.96
2022-10-06T06:48:33.383Z,1031.99
2022-10-06T07:03:57.479Z,1032.01
2022-10-06T07:19:07.001Z,1032.03
2022-10-06T07:34:22.950Z,1032.05
2022-10-06T07:49:38.946Z,1032
2022-10-06T08:04:55.581Z,1031.94
2022-10-06T08:20:11.882Z,1032.05
2022-10-06T08:35:27.830Z,1031.96
2022-10-06T08:50:44.823Z,1032.02
2022-10-06T09:06:01.790Z,1031.93
2022-10-06T09:21:18.768Z,1031.99
2022-10-06T09:36:34.728Z,1031.74
2022-10-06T09:51:50.704Z,1031.57
2022-10-06T10:07:06.660Z,1031.44
2022-10-06T10:22:23.633Z,1031.35
2022-10-06T10:37:40.605Z,1031.3
2022-10-06T10:52:57.584Z,1031.09
2022-10-06T11:08:14.535Z,1031.06
2022-10-06T11:23:31.510Z,1030.87
2022-10-06T11:38:47.468Z,1030.76
2022-10-06T11:54:03.407Z,1030.51
2022-10-06T12:09:19.408Z,1030.31
2022-10-06T12:24:36.340Z,1030.12
2022-10-06T12:39:53.342Z,1029.92
2022-10-06T12:55:10.287Z,1029.79
2022-10-06T13:10:26.276Z,1029.64
2022-10-06T13:11:06.125Z,1029.64
2022-10-06T13:25:44.224Z,1029.56
2022-10-06T13:41:01.221Z,1029.62
2022-10-06T13:56:18.200Z,1029.51
2022-10-06T14:11:35.143Z,1029.36
2022-10-06T14:26:52.098Z,1029.33
2022-10-06T14:42:08.082Z,1029.25
2022-10-06T14:57:24.019Z,1029
2022-10-06T15:12:40.017Z,1029.17
2022-10-06T15:27:57.083Z,1029.07
2022-10-06T15:43:12.956Z,1029.1
2022-10-06T15:58:29.894Z,1029.1
2022-10-06T16:13:46.893Z,1029.24
2022-10-06T16:29:04.111Z,1029.16
2022-10-06T16:44:19.804Z,1029.16
2022-10-06T16:59:35.814Z,1029.19
2022-10-06T17:14:51.742Z,1029.22
2022-10-06T17:30:08.741Z,1029.28
2022-10-06T17:45:24.734Z,1029.51
2022-10-06T18:00:41.717Z,1029.63
2022-10-06T18:15:58.611Z,1029.64
2022-10-06T18:31:15.612Z,1029.64
2022-10-06T18:46:31.730Z,1029.76
2022-10-06T19:01:47.603Z,1029.76
2022-10-06T19:17:03.500Z,1029.92
2022-10-06T19:32:21.495Z,1030.2
2022-10-06T19:47:37.434Z,1030.2
2022-10-06T20:02:53.418Z,1030.34
2022-10-06T20:18:09.376Z,1030.48
2022-10-06T20:33:26.384Z,1030.48
2022-10-06T20:48:43.315Z,1030.54
2022-10-06T21:04:00.292Z,1030.59
2022-10-06T21:19:22.778Z,1030.54
2022-10-06T21:34:33.220Z,1030.46
2022-10-06T21:49:50.233Z,1030.35
2022-10-06T22:05:07.171Z,1030.33
2022-10-06T22:20:24.139Z,1030.28
2022-10-06T22:35:40.114Z,1030.3
2022-10-06T22:50:56.111Z,1030.17
2022-10-06T23:06:12.098Z,1030.06
2022-10-06T23:21:29.027Z,1030.06
2022-10-06T23:36:45.026Z,1030.12
2022-10-06T23:52:01.998Z,1030.06
